sensor_id;sensor_type;location;lat;lon;timestamp;P1;durP1;ratioP1;P2;durP2;ratioP2
3267;SDS011;1646;52.450;13.326;2022-07-03T00:02:57;3.37;;;3.07;;
3267;SDS011;1646;52.450;13.326;2022-07-03T00:07:55;3.03;;;2.83;;
3267;SDS011;1646;52.450;13.326;2022-07-03T00:12:54;6.27;;;3.00;;
3267;SDS011;1646;52.450;13.326;2022-07-03T00:17:53;5.73;;;3.63;;
3267;SDS011;1646;52.450;13.326;2022-07-03T00:22:51;4.50;;;3.13;;
3267;SDS011;1646;52.450;13.326;2022-07-03T00:27:49;5.50;;;3.17;;
3267;SDS011;1646;52.450;13.326;2022-07-03T00:32:47;3.13;;;2.83;;
3267;SDS011;1646;52.450;13.326;2022-07-03T00:37:48;4.13;;;3.30;;
3267;SDS011;1646;52.450;13.326;2022-07-03T00:42:47;3.20;;;2.90;;
3267;SDS011;1646;52.450;13.326;2022-07-03T00:47:48;3.73;;;3.10;;
3267;SDS011;1646;52.450;13.326;2022-07-03T00:52:47;5.60;;;3.50;;
3267;SDS011;1646;52.450;13.326;2022-07-03T00:57:47;3.37;;;3.07;;
3267;SDS011;1646;52.450;13.326;2022-07-03T01:02:48;4.37;;;3.80;;
3267;SDS011;1646;52.450;13.326;2022-07-03T01:07:55;5.87;;;4.07;;
3267;SDS011;1646;52.450;13.326;2022-07-03T01:13:04;7.10;;;4.00;;
3267;SDS011;1646;52.450;13.326;2022-07-03T01:18:11;4.57;;;3.70;;
3267;SDS011;1646;52.450;13.326;2022-07-03T01:23:24;5.43;;;3.80;;
3267;SDS011;1646;52.450;13.326;2022-07-03T01:28:29;4.63;;;3.60;;
3267;SDS011;1646;52.450;13.326;2022-07-03T01:33:30;4.77;;;3.83;;
3267;SDS011;1646;52.450;13.326;2022-07-03T01:38:30;5.13;;;4.10;;
3267;SDS011;1646;52.450;13.326;2022-07-03T01:43:31;4.50;;;4.10;;
3267;SDS011;1646;52.450;13.326;2022-07-03T01:48:31;6.90;;;4.77;;
3267;SDS011;1646;52.450;13.326;2022-07-03T01:53:30;4.30;;;3.57;;
3267;SDS011;1646;52.450;13.326;2022-07-03T01:58:28;5.70;;;4.33;;
3267;SDS011;1646;52.450;13.326;2022-07-03T02:03:28;8.27;;;3.83;;
3267;SDS011;1646;52.450;13.326;2022-07-03T02:08:30;4.50;;;4.10;;
3267;SDS011;1646;52.450;13.326;2022-07-03T02:13:35;4.20;;;3.80;;
3267;SDS011;1646;52.450;13.326;2022-07-03T02:18:37;4.83;;;4.43;;
3267;SDS011;1646;52.450;13.326;2022-07-03T02:23:38;3.90;;;3.60;;
3267;SDS011;1646;52.450;13.326;2022-07-03T02:28:46;5.47;;;4.33;;
3267;SDS011;1646;52.450;13.326;2022-07-03T02:33:55;5.40;;;4.13;;
3267;SDS011;1646;52.450;13.326;2022-07-03T02:38:56;5.83;;;4.60;;
3267;SDS011;1646;52.450;13.326;2022-07-03T02:43:57;4.50;;;4.20;;
3267;SDS011;1646;52.450;13.326;2022-07-03T02:49:01;5.90;;;4.60;;
3267;SDS011;1646;52.450;13.326;2022-07-03T02:54:09;6.00;;;4.63;;
3267;SDS011;1646;52.450;13.326;2022-07-03T02:59:12;4.80;;;4.40;;
3267;SDS011;1646;52.450;13.326;2022-07-03T03:04:21;8.40;;;4.80;;
3267;SDS011;1646;52.450;13.326;2022-07-03T03:09:26;4.67;;;4.10;;
3267;SDS011;1646;52.450;13.326;2022-07-03T03:14:31;8.87;;;4.80;;
3267;SDS011;1646;52.450;13.326;2022-07-03T03:19:39;5.90;;;5.00;;
3267;SDS011;1646;52.450;13.326;2022-07-03T03:24:39;5.10;;;4.70;;
3267;SDS011;1646;52.450;13.326;2022-07-03T03:29:37;4.70;;;4.17;;
3267;SDS011;1646;52.450;13.326;2022-07-03T03:34:36;5.60;;;4.47;;
3267;SDS011;1646;52.450;13.326;2022-07-03T03:39:38;5.23;;;4.73;;
3267;SDS011;1646;52.450;13.326;2022-07-03T03:44:36;6.07;;;4.60;;
3267;SDS011;1646;52.450;13.326;2022-07-03T03:49:35;5.77;;;5.07;;
3267;SDS011;1646;52.450;13.326;2022-07-03T03:54:35;5.47;;;5.00;;
3267;SDS011;1646;52.450;13.326;2022-07-03T03:59:34;9.50;;;5.30;;
3267;SDS011;1646;52.450;13.326;2022-07-03T04:04:33;8.33;;;5.00;;
3267;SDS011;1646;52.450;13.326;2022-07-03T04:09:31;4.60;;;4.20;;
3267;SDS011;1646;52.450;13.326;2022-07-03T04:14:30;5.00;;;4.60;;
3267;SDS011;1646;52.450;13.326;2022-07-03T04:19:28;6.00;;;5.40;;
3267;SDS011;1646;52.450;13.326;2022-07-03T04:24:27;6.83;;;4.70;;
3267;SDS011;1646;52.450;13.326;2022-07-03T04:29:25;5.83;;;5.23;;
3267;SDS011;1646;52.450;13.326;2022-07-03T04:34:24;5.40;;;4.80;;
3267;SDS011;1646;52.450;13.326;2022-07-03T04:39:22;5.20;;;4.70;;
3267;SDS011;1646;52.450;13.326;2022-07-03T04:44:20;8.30;;;5.03;;
3267;SDS011;1646;52.450;13.326;2022-07-03T04:49:18;5.00;;;4.60;;
3267;SDS011;1646;52.450;13.326;2022-07-03T04:54:17;6.17;;;4.70;;
3267;SDS011;1646;52.450;13.326;2022-07-03T04:59:15;5.63;;;4.83;;
3267;SDS011;1646;52.450;13.326;2022-07-03T05:04:13;5.33;;;4.87;;
3267;SDS011;1646;52.450;13.326;2022-07-03T05:09:11;6.80;;;4.23;;
3267;SDS011;1646;52.450;13.326;2022-07-03T05:14:11;11.10;;;4.33;;
3267;SDS011;1646;52.450;13.326;2022-07-03T05:19:09;4.60;;;4.20;;
3267;SDS011;1646;52.450;13.326;2022-07-03T05:24:07;5.00;;;4.50;;
3267;SDS011;1646;52.450;13.326;2022-07-03T05:29:08;4.50;;;3.60;;
3267;SDS011;1646;52.450;13.326;2022-07-03T05:34:07;5.30;;;4.17;;
3267;SDS011;1646;52.450;13.326;2022-07-03T05:39:05;4.30;;;3.90;;
3267;SDS011;1646;52.450;13.326;2022-07-03T05:44:20;4.30;;;3.50;;
3267;SDS011;1646;52.450;13.326;2022-07-03T05:49:20;4.47;;;3.97;;
3267;SDS011;1646;52.450;13.326;2022-07-03T05:54:18;6.30;;;3.70;;
3267;SDS011;1646;52.450;13.326;2022-07-03T05:59:16;4.37;;;3.90;;
3267;SDS011;1646;52.450;13.326;2022-07-03T06:04:14;3.77;;;3.47;;
3267;SDS011;1646;52.450;13.326;2022-07-03T06:09:14;3.77;;;3.47;;
3267;SDS011;1646;52.450;13.326;2022-07-03T06:14:12;3.83;;;3.33;;
3267;SDS011;1646;52.450;13.326;2022-07-03T06:19:10;3.33;;;3.13;;
3267;SDS011;1646;52.450;13.326;2022-07-03T06:24:08;3.60;;;3.37;;
3267;SDS011;1646;52.450;13.326;2022-07-03T06:29:08;3.73;;;3.43;;
3267;SDS011;1646;52.450;13.326;2022-07-03T06:34:06;5.40;;;3.90;;
3267;SDS011;1646;52.450;13.326;2022-07-03T06:39:04;4.23;;;3.03;;
3267;SDS011;1646;52.450;13.326;2022-07-03T06:44:02;3.17;;;2.77;;
3267;SDS011;1646;52.450;13.326;2022-07-03T06:49:01;2.80;;;2.60;;
3267;SDS011;1646;52.450;13.326;2022-07-03T06:53:59;4.17;;;3.50;;
3267;SDS011;1646;52.450;13.326;2022-07-03T06:58:57;3.27;;;2.60;;
3267;SDS011;1646;52.450;13.326;2022-07-03T07:03:55;8.63;;;3.00;;
3267;SDS011;1646;52.450;13.326;2022-07-03T07:08:55;2.97;;;2.70;;
3267;SDS011;1646;52.450;13.326;2022-07-03T07:13:53;3.83;;;2.97;;
3267;SDS011;1646;52.450;13.326;2022-07-03T07:18:51;3.23;;;3.03;;
3267;SDS011;1646;52.450;13.326;2022-07-03T07:23:49;8.67;;;3.23;;
3267;SDS011;1646;52.450;13.326;2022-07-03T07:28:48;2.43;;;2.27;;
3267;SDS011;1646;52.450;13.326;2022-07-03T07:33:46;6.20;;;2.57;;
3267;SDS011;1646;52.450;13.326;2022-07-03T07:38:44;4.40;;;2.47;;
3267;SDS011;1646;52.450;13.326;2022-07-03T07:43:42;2.43;;;2.33;;
3267;SDS011;1646;52.450;13.326;2022-07-03T07:48:42;2.50;;;2.40;;
3267;SDS011;1646;52.450;13.326;2022-07-03T07:53:41;3.23;;;2.70;;
3267;SDS011;1646;52.450;13.326;2022-07-03T07:58:42;2.90;;;2.70;;
3267;SDS011;1646;52.450;13.326;2022-07-03T08:03:41;4.20;;;2.30;;
3267;SDS011;1646;52.450;13.326;2022-07-03T08:08:57;3.37;;;2.27;;
3267;SDS011;1646;52.450;13.326;2022-07-03T08:13:55;2.83;;;2.60;;
3267;SDS011;1646;52.450;13.326;2022-07-03T08:18:54;2.30;;;2.10;;
3267;SDS011;1646;52.450;13.326;2022-07-03T08:23:52;4.20;;;2.50;;
3267;SDS011;1646;52.450;13.326;2022-07-03T08:28:50;3.40;;;2.83;;
3267;SDS011;1646;52.450;13.326;2022-07-03T08:33:48;2.53;;;2.37;;
3267;SDS011;1646;52.450;13.326;2022-07-03T08:38:47;2.57;;;2.37;;
3267;SDS011;1646;52.450;13.326;2022-07-03T08:43:46;2.93;;;2.63;;
3267;SDS011;1646;52.450;13.326;2022-07-03T08:48:47;2.30;;;2.20;;
3267;SDS011;1646;52.450;13.326;2022-07-03T08:53:48;3.53;;;2.67;;
3267;SDS011;1646;52.450;13.326;2022-07-03T08:58:50;2.90;;;2.70;;
3267;SDS011;1646;52.450;13.326;2022-07-03T09:03:48;2.50;;;2.30;;
3267;SDS011;1646;52.450;13.326;2022-07-03T09:08:48;5.43;;;2.17;;
3267;SDS011;1646;52.450;13.326;2022-07-03T09:13:47;9.07;;;2.47;;
3267;SDS011;1646;52.450;13.326;2022-07-03T09:18:50;2.63;;;2.43;;
3267;SDS011;1646;52.450;13.326;2022-07-03T09:23:49;4.23;;;2.40;;
3267;SDS011;1646;52.450;13.326;2022-07-03T09:28:48;5.47;;;2.23;;
3267;SDS011;1646;52.450;13.326;2022-07-03T09:33:53;5.13;;;2.17;;
3267;SDS011;1646;52.450;13.326;2022-07-03T09:38:54;2.10;;;2.00;;
3267;SDS011;1646;52.450;13.326;2022-07-03T09:43:52;4.23;;;2.30;;
3267;SDS011;1646;52.450;13.326;2022-07-03T09:48:50;2.63;;;2.43;;
3267;SDS011;1646;52.450;13.326;2022-07-03T09:53:50;2.67;;;1.80;;
3267;SDS011;1646;52.450;13.326;2022-07-03T09:59:07;2.10;;;2.00;;
3267;SDS011;1646;52.450;13.326;2022-07-03T10:09:23;4.53;;;2.13;;
3267;SDS011;1646;52.450;13.326;2022-07-03T10:14:24;2.53;;;2.37;;
3267;SDS011;1646;52.450;13.326;2022-07-03T10:19:25;1.93;;;1.83;;
3267;SDS011;1646;52.450;13.326;2022-07-03T10:24:26;2.70;;;2.10;;
3267;SDS011;1646;52.450;13.326;2022-07-03T10:29:27;2.50;;;2.20;;
3267;SDS011;1646;52.450;13.326;2022-07-03T10:34:26;3.57;;;1.90;;
3267;SDS011;1646;52.450;13.326;2022-07-03T10:39:28;2.97;;;2.03;;
3267;SDS011;1646;52.450;13.326;2022-07-03T10:44:32;1.93;;;1.83;;
3267;SDS011;1646;52.450;13.326;2022-07-03T10:49:59;1.90;;;1.80;;
3267;SDS011;1646;52.450;13.326;2022-07-03T10:54:58;3.40;;;2.17;;
3267;SDS011;1646;52.450;13.326;2022-07-03T10:59:59;2.93;;;1.70;;
3267;SDS011;1646;52.450;13.326;2022-07-03T11:05:03;1.70;;;1.70;;
3267;SDS011;1646;52.450;13.326;2022-07-03T11:15:29;1.93;;;1.83;;
3267;SDS011;1646;52.450;13.326;2022-07-03T11:20:28;1.47;;;1.43;;
3267;SDS011;1646;52.450;13.326;2022-07-03T11:25:27;1.87;;;1.77;;
3267;SDS011;1646;52.450;13.326;2022-07-03T11:30:37;9.53;;;2.10;;
3267;SDS011;1646;52.450;13.326;2022-07-03T11:35:55;7.20;;;1.70;;
3267;SDS011;1646;52.450;13.326;2022-07-03T11:40:54;2.10;;;1.90;;
3267;SDS011;1646;52.450;13.326;2022-07-03T11:45:53;1.70;;;1.60;;
3267;SDS011;1646;52.450;13.326;2022-07-03T11:50:52;1.93;;;1.80;;
3267;SDS011;1646;52.450;13.326;2022-07-03T11:55:57;2.40;;;1.57;;
3267;SDS011;1646;52.450;13.326;2022-07-03T12:00:57;4.40;;;1.80;;
3267;SDS011;1646;52.450;13.326;2022-07-03T12:05:56;1.93;;;1.50;;
3267;SDS011;1646;52.450;13.326;2022-07-03T12:11:00;1.90;;;1.80;;
3267;SDS011;1646;52.450;13.326;2022-07-03T12:16:07;2.07;;;1.97;;
3267;SDS011;1646;52.450;13.326;2022-07-03T12:21:06;1.80;;;1.70;;
3267;SDS011;1646;52.450;13.326;2022-07-03T12:26:06;2.10;;;1.90;;
3267;SDS011;1646;52.450;13.326;2022-07-03T12:31:04;5.67;;;2.40;;
3267;SDS011;1646;52.450;13.326;2022-07-03T12:36:03;1.83;;;1.73;;
3267;SDS011;1646;52.450;13.326;2022-07-03T12:41:03;3.87;;;2.20;;
3267;SDS011;1646;52.450;13.326;2022-07-03T12:46:04;2.90;;;2.00;;
3267;SDS011;1646;52.450;13.326;2022-07-03T12:51:13;3.47;;;1.90;;
3267;SDS011;1646;52.450;13.326;2022-07-03T12:56:11;2.40;;;1.60;;
3267;SDS011;1646;52.450;13.326;2022-07-03T13:01:24;1.93;;;1.60;;
3267;SDS011;1646;52.450;13.326;2022-07-03T13:06:23;1.73;;;1.63;;
3267;SDS011;1646;52.450;13.326;2022-07-03T13:11:25;2.10;;;1.93;;
3267;SDS011;1646;52.450;13.326;2022-07-03T13:16:26;2.20;;;1.60;;
3267;SDS011;1646;52.450;13.326;2022-07-03T13:21:25;1.63;;;1.57;;
3267;SDS011;1646;52.450;13.326;2022-07-03T13:26:28;4.50;;;1.50;;
3267;SDS011;1646;52.450;13.326;2022-07-03T13:31:27;2.90;;;1.97;;
3267;SDS011;1646;52.450;13.326;2022-07-03T13:36:26;4.83;;;1.80;;
3267;SDS011;1646;52.450;13.326;2022-07-03T13:41:24;1.50;;;1.50;;
3267;SDS011;1646;52.450;13.326;2022-07-03T13:46:23;1.63;;;1.53;;
3267;SDS011;1646;52.450;13.326;2022-07-03T13:51:23;2.00;;;1.90;;
3267;SDS011;1646;52.450;13.326;2022-07-03T13:56:21;1.93;;;1.67;;
3267;SDS011;1646;52.450;13.326;2022-07-03T14:01:19;1.63;;;1.37;;
3267;SDS011;1646;52.450;13.326;2022-07-03T14:06:17;1.50;;;1.40;;
3267;SDS011;1646;52.450;13.326;2022-07-03T14:11:17;1.80;;;1.70;;
3267;SDS011;1646;52.450;13.326;2022-07-03T14:16:15;1.60;;;1.50;;
3267;SDS011;1646;52.450;13.326;2022-07-03T14:21:13;1.80;;;1.70;;
3267;SDS011;1646;52.450;13.326;2022-07-03T14:26:11;1.70;;;1.60;;
3267;SDS011;1646;52.450;13.326;2022-07-03T14:31:11;2.07;;;1.97;;
3267;SDS011;1646;52.450;13.326;2022-07-03T14:36:26;1.90;;;1.80;;
3267;SDS011;1646;52.450;13.326;2022-07-03T14:41:40;5.50;;;1.73;;
3267;SDS011;1646;52.450;13.326;2022-07-03T14:46:41;1.60;;;1.50;;
3267;SDS011;1646;52.450;13.326;2022-07-03T14:51:39;2.10;;;1.60;;
3267;SDS011;1646;52.450;13.326;2022-07-03T14:56:39;1.60;;;1.50;;
3267;SDS011;1646;52.450;13.326;2022-07-03T15:01:47;1.73;;;1.63;;
3267;SDS011;1646;52.450;13.326;2022-07-03T15:06:52;2.20;;;2.00;;
3267;SDS011;1646;52.450;13.326;2022-07-03T15:11:51;2.27;;;2.07;;
3267;SDS011;1646;52.450;13.326;2022-07-03T15:17:10;1.80;;;1.70;;
3267;SDS011;1646;52.450;13.326;2022-07-03T15:22:09;1.90;;;1.60;;
3267;SDS011;1646;52.450;13.326;2022-07-03T15:27:11;2.80;;;1.80;;
3267;SDS011;1646;52.450;13.326;2022-07-03T15:32:13;2.63;;;1.67;;
3267;SDS011;1646;52.450;13.326;2022-07-03T15:37:14;3.20;;;2.90;;
3267;SDS011;1646;52.450;13.326;2022-07-03T15:42:23;4.83;;;1.53;;
3267;SDS011;1646;52.450;13.326;2022-07-03T15:47:39;1.80;;;1.70;;
3267;SDS011;1646;52.450;13.326;2022-07-03T15:52:44;1.90;;;1.80;;
3267;SDS011;1646;52.450;13.326;2022-07-03T15:57:47;1.80;;;1.70;;
3267;SDS011;1646;52.450;13.326;2022-07-03T16:03:01;6.33;;;2.23;;
3267;SDS011;1646;52.450;13.326;2022-07-03T16:08:09;2.60;;;1.67;;
3267;SDS011;1646;52.450;13.326;2022-07-03T16:13:09;2.40;;;1.50;;
3267;SDS011;1646;52.450;13.326;2022-07-03T16:18:09;6.93;;;1.77;;
3267;SDS011;1646;52.450;13.326;2022-07-03T16:23:10;1.90;;;1.80;;
3267;SDS011;1646;52.450;13.326;2022-07-03T16:28:09;1.77;;;1.67;;
3267;SDS011;1646;52.450;13.326;2022-07-03T16:33:09;3.10;;;2.00;;
3267;SDS011;1646;52.450;13.326;2022-07-03T16:38:10;2.17;;;1.47;;
3267;SDS011;1646;52.450;13.326;2022-07-03T16:43:09;2.00;;;1.90;;
3267;SDS011;1646;52.450;13.326;2022-07-03T16:48:12;1.47;;;1.43;;
3267;SDS011;1646;52.450;13.326;2022-07-03T16:53:12;1.60;;;1.50;;
3267;SDS011;1646;52.450;13.326;2022-07-03T16:58:14;5.13;;;1.53;;
3267;SDS011;1646;52.450;13.326;2022-07-03T17:03:16;1.70;;;1.60;;
3267;SDS011;1646;52.450;13.326;2022-07-03T17:08:16;1.80;;;1.70;;
3267;SDS011;1646;52.450;13.326;2022-07-03T17:13:14;1.80;;;1.70;;
3267;SDS011;1646;52.450;13.326;2022-07-03T17:18:14;1.90;;;1.80;;
3267;SDS011;1646;52.450;13.326;2022-07-03T17:23:13;1.53;;;1.40;;
3267;SDS011;1646;52.450;13.326;2022-07-03T17:28:13;1.77;;;1.53;;
3267;SDS011;1646;52.450;13.326;2022-07-03T17:33:14;1.63;;;1.53;;
3267;SDS011;1646;52.450;13.326;2022-07-03T17:38:15;1.40;;;1.30;;
3267;SDS011;1646;52.450;13.326;2022-07-03T17:43:34;1.20;;;1.20;;
3267;SDS011;1646;52.450;13.326;2022-07-03T17:48:38;2.30;;;1.50;;
3267;SDS011;1646;52.450;13.326;2022-07-03T17:53:38;3.80;;;1.77;;
3267;SDS011;1646;52.450;13.326;2022-07-03T17:58:39;1.80;;;1.30;;
3267;SDS011;1646;52.450;13.326;2022-07-03T18:03:39;1.70;;;1.60;;
3267;SDS011;1646;52.450;13.326;2022-07-03T18:08:40;2.60;;;2.00;;
3267;SDS011;1646;52.450;13.326;2022-07-03T18:13:46;1.83;;;1.60;;
3267;SDS011;1646;52.450;13.326;2022-07-03T18:18:53;3.90;;;2.23;;
3267;SDS011;1646;52.450;13.326;2022-07-03T18:23:54;1.80;;;1.70;;
3267;SDS011;1646;52.450;13.326;2022-07-03T18:28:54;3.93;;;1.73;;
3267;SDS011;1646;52.450;13.326;2022-07-03T18:33:55;2.10;;;1.90;;
3267;SDS011;1646;52.450;13.326;2022-07-03T18:38:53;1.40;;;1.40;;
3267;SDS011;1646;52.450;13.326;2022-07-03T18:43:51;1.90;;;1.70;;
3267;SDS011;1646;52.450;13.326;2022-07-03T18:48:50;2.40;;;1.63;;
3267;SDS011;1646;52.450;13.326;2022-07-03T18:53:51;2.20;;;2.00;;
3267;SDS011;1646;52.450;13.326;2022-07-03T18:59:00;1.93;;;1.80;;
3267;SDS011;1646;52.450;13.326;2022-07-03T19:04:09;3.57;;;2.43;;
3267;SDS011;1646;52.450;13.326;2022-07-03T19:09:25;2.37;;;2.23;;
3267;SDS011;1646;52.450;13.326;2022-07-03T19:14:27;5.13;;;2.30;;
3267;SDS011;1646;52.450;13.326;2022-07-03T19:19:29;2.57;;;2.37;;
3267;SDS011;1646;52.450;13.326;2022-07-03T19:24:29;2.40;;;2.17;;
3267;SDS011;1646;52.450;13.326;2022-07-03T19:29:27;3.63;;;2.40;;
3267;SDS011;1646;52.450;13.326;2022-07-03T19:34:28;2.30;;;2.00;;
3267;SDS011;1646;52.450;13.326;2022-07-03T19:39:26;2.40;;;2.20;;
3267;SDS011;1646;52.450;13.326;2022-07-03T19:44:26;4.00;;;3.17;;
3267;SDS011;1646;52.450;13.326;2022-07-03T19:49:24;2.33;;;2.13;;
3267;SDS011;1646;52.450;13.326;2022-07-03T19:54:22;3.60;;;2.80;;
3267;SDS011;1646;52.450;13.326;2022-07-03T19:59:21;8.67;;;3.10;;
3267;SDS011;1646;52.450;13.326;2022-07-03T20:04:19;3.67;;;3.40;;
3267;SDS011;1646;52.450;13.326;2022-07-03T20:09:17;5.10;;;2.67;;
3267;SDS011;1646;52.450;13.326;2022-07-03T20:14:18;2.77;;;2.57;;
3267;SDS011;1646;52.450;13.326;2022-07-03T20:19:17;3.33;;;2.77;;
3267;SDS011;1646;52.450;13.326;2022-07-03T20:24:16;3.17;;;2.87;;
3267;SDS011;1646;52.450;13.326;2022-07-03T20:29:31;2.63;;;2.40;;
3267;SDS011;1646;52.450;13.326;2022-07-03T20:34:33;3.10;;;2.90;;
3267;SDS011;1646;52.450;13.326;2022-07-03T20:39:32;3.20;;;2.50;;
3267;SDS011;1646;52.450;13.326;2022-07-03T20:44:33;3.57;;;3.27;;
3267;SDS011;1646;52.450;13.326;2022-07-03T20:49:53;3.23;;;2.93;;
3267;SDS011;1646;52.450;13.326;2022-07-03T20:54:51;3.63;;;3.33;;
3267;SDS011;1646;52.450;13.326;2022-07-03T20:59:49;7.00;;;4.03;;
3267;SDS011;1646;52.450;13.326;2022-07-03T21:04:47;5.47;;;3.63;;
3267;SDS011;1646;52.450;13.326;2022-07-03T21:09:48;4.10;;;3.50;;
3267;SDS011;1646;52.450;13.326;2022-07-03T21:14:46;4.00;;;3.53;;
3267;SDS011;1646;52.450;13.326;2022-07-03T21:19:44;4.40;;;3.37;;
3267;SDS011;1646;52.450;13.326;2022-07-03T21:24:42;5.20;;;4.07;;
3267;SDS011;1646;52.450;13.326;2022-07-03T21:29:41;3.90;;;3.60;;
3267;SDS011;1646;52.450;13.326;2022-07-03T21:34:41;3.97;;;3.67;;
3267;SDS011;1646;52.450;13.326;2022-07-03T21:39:40;3.80;;;3.50;;
3267;SDS011;1646;52.450;13.326;2022-07-03T21:44:39;4.43;;;3.77;;
3267;SDS011;1646;52.450;13.326;2022-07-03T21:49:39;4.40;;;4.10;;
3267;SDS011;1646;52.450;13.326;2022-07-03T21:54:37;3.57;;;3.30;;
3267;SDS011;1646;52.450;13.326;2022-07-03T21:59:35;3.93;;;3.63;;
3267;SDS011;1646;52.450;13.326;2022-07-03T22:04:33;3.30;;;3.00;;
3267;SDS011;1646;52.450;13.326;2022-07-03T22:09:32;7.10;;;3.90;;
3267;SDS011;1646;52.450;13.326;2022-07-03T22:14:42;5.17;;;4.07;;
3267;SDS011;1646;52.450;13.326;2022-07-03T22:19:41;3.80;;;3.50;;
3267;SDS011;1646;52.450;13.326;2022-07-03T22:24:40;3.87;;;3.50;;
3267;SDS011;1646;52.450;13.326;2022-07-03T22:29:38;4.53;;;3.37;;
3267;SDS011;1646;52.450;13.326;2022-07-03T22:34:36;4.83;;;3.30;;
3267;SDS011;1646;52.450;13.326;2022-07-03T22:39:34;5.10;;;3.70;;
3267;SDS011;1646;52.450;13.326;2022-07-03T22:44:34;3.63;;;3.37;;
3267;SDS011;1646;52.450;13.326;2022-07-03T22:49:32;3.37;;;3.17;;
3267;SDS011;1646;52.450;13.326;2022-07-03T22:54:30;4.10;;;3.70;;
3267;SDS011;1646;52.450;13.326;2022-07-03T22:59:29;3.83;;;3.63;;
3267;SDS011;1646;52.450;13.326;2022-07-03T23:04:28;4.40;;;2.60;;
3267;SDS011;1646;52.450;13.326;2022-07-03T23:09:26;6.20;;;3.30;;
3267;SDS011;1646;52.450;13.326;2022-07-03T23:14:24;3.00;;;2.80;;
3267;SDS011;1646;52.450;13.326;2022-07-03T23:19:22;4.43;;;3.07;;
3267;SDS011;1646;52.450;13.326;2022-07-03T23:24:22;6.20;;;2.87;;
3267;SDS011;1646;52.450;13.326;2022-07-03T23:29:20;3.53;;;2.50;;
3267;SDS011;1646;52.450;13.326;2022-07-03T23:34:18;6.00;;;2.50;;
3267;SDS011;1646;52.450;13.326;2022-07-03T23:39:16;2.80;;;2.60;;
3267;SDS011;1646;52.450;13.326;2022-07-03T23:44:15;6.50;;;3.20;;
3267;SDS011;1646;52.450;13.326;2022-07-03T23:49:13;2.90;;;2.70;;
3267;SDS011;1646;52.450;13.326;2022-07-03T23:54:29;2.43;;;2.17;;
3267;SDS011;1646;52.450;13.326;2022-07-03T23:59:28;2.90;;;2.70;;
